Time;durP1;ratioP1;P1;durP2;ratioP2;P2;SDS_P1;SDS_P2;PMS_P1;PMS_P2;Temp;Humidity;BMP_temperature;BMP_pressure;BME280_temperature;BME280_humidity;BME280_pressure;Samples;Min_cycle;Max_cycle;Signal;HPM_P1;HPM_P2
2024/01/26 00:02:18;;;;;;;;;;;;;;;;;;5095183;27;19937;-85
2024/01/26 00:04:45;;;;;;;;;;;;;;;;;;5087690;27;19920;-83
2024/01/26 00:07:13;;;;;;;;;;;;;;;;;;5094095;27;19987;-84
2024/01/26 00:09:40;;;;;;;;;;;;;;;;;;5095116;27;20385;-84
2024/01/26 00:12:07;;;;;;;;;;;;;;;;;;5093686;28;20450;-83
2024/01/26 00:14:34;;;;;;;;;;;;;;;;;;5090345;27;19912;-83
2024/01/26 00:17:00;;;;;;;;;;;;;;;;;;5094055;27;19932;-83
2024/01/26 00:19:26;;;;;;;;;;;;;;;;;;5091497;27;19919;-83
2024/01/26 00:21:53;;;;;;;;;;;;;;;;;;5111480;27;19915;-83
2024/01/26 00:24:20;;;;;;;;;;;;;;;;;;5088718;27;19920;-83
2024/01/26 00:26:48;;;;;;;;;;;;;;;;;;5089647;27;19962;-82
2024/01/26 00:29:15;;;;;;;;;;;;;;;;;;5093079;27;19911;-83
2024/01/26 00:31:42;;;;;;;;;;;;;;;;;;5089050;27;20478;-84
2024/01/26 00:34:09;;;;;;;;;;;;;;;;;;5091272;27;19915;-84
2024/01/26 00:36:35;;;;;;;;;;;;;;;;;;5086843;27;19969;-84
2024/01/26 00:39:06;;;;;;;;;;;;;;;;;;5088231;27;20454;-84
2024/01/26 00:41:34;;;;;;;;;;;;;;;;;;5088068;27;20605;-83
2024/01/26 00:44:00;;;;;;;;;;;;;;;;;;5089548;27;20022;-83
2024/01/26 00:46:27;;;;;;;;;;;;;;;;;;5087455;27;19944;-84
2024/01/26 00:48:54;;;;;;;;;;;;;;;;;;5088273;27;19922;-83
2024/01/26 00:51:23;;;;;;;;;;;;;;;;;;5090941;27;19931;-83
2024/01/26 00:53:52;;;;;;;;;;;;;;;;;;5092493;27;19912;-83
2024/01/26 00:56:20;;;;;;;;;;;;;;;;;;5086674;27;20471;-82
2024/01/26 00:58:48;;;;;;;;;;;;;;;;;;5088218;27;19912;-83
2024/01/26 01:01:15;;;;;;;;;;;;;;;;;;5099089;27;20397;-83
2024/01/26 01:03:41;;;;;;;;;;;;;;;;;;5097700;27;20200;-83
2024/01/26 01:06:09;;;;;;;;;;;;;;;;;;5100429;27;20006;-82
2024/01/26 01:08:36;;;;;;;;;;;;;;;;;;5087070;27;19912;-83
2024/01/26 01:11:03;;;;;;;;;;;;;;;;;;5105867;27;20037;-82
2024/01/26 01:13:30;;;;;;;;;;;;;;;;;;5084398;27;20603;-83
2024/01/26 01:16:00;;;;;;;;;;;;;;;;;;5090728;27;19912;-85
2024/01/26 01:18:28;;;;;;;;;;;;;;;;;;5090258;27;20761;-83
2024/01/26 01:20:55;;;;;;;;;;;;;;;;;;5089063;27;19916;-83
2024/01/26 01:23:23;;;;;;;;;;;;;;;;;;5094086;27;19911;-82
2024/01/26 01:25:51;;;;;;;;;;;;;;;;;;5109221;27;20537;-83
2024/01/26 01:28:18;;;;;;;;;;;;;;;;;;5101423;27;20006;-82
2024/01/26 01:30:45;;;;;;;;;;;;;;;;;;5089324;27;20371;-82
2024/01/26 01:33:13;;;;;;;;;;;;;;;;;;5094160;27;19911;-83
2024/01/26 01:35:38;;;;;;;;;;;;;;;;;;5090752;27;19957;-83
2024/01/26 01:38:06;;;;;;;;;;;;;;;;;;5091830;27;20006;-83
2024/01/26 01:40:33;;;;;;;;;;;;;;;;;;5102373;27;19918;-84
2024/01/26 01:43:00;;;;;;;;;;;;;;;;;;5093065;27;19942;-84
2024/01/26 01:45:27;;;;;;;;;;;;;;;;;;5087580;27;19959;-84
2024/01/26 01:47:55;;;;;;;;;;;;;;;;;;5102741;27;19918;-84
2024/01/26 01:50:21;;;;;;;;;;;;;;;;;;5091468;27;20432;-83
2024/01/26 01:52:48;;;;;;;;;;;;;;;;;;5106811;27;19926;-83
2024/01/26 01:55:15;;;;;;;;;;;;;;;;;;5091538;27;20124;-83
2024/01/26 01:57:46;;;;;;;;;;;;;;;;;;5103255;27;19912;-84
2024/01/26 02:00:19;;;;;;;;;;;;;;;;;;5106604;27;20051;-83
2024/01/26 02:02:46;;;;;;;;;;;;;;;;;;5109387;27;19919;-84
2024/01/26 02:05:14;;;;;;;;;;;;;;;;;;5099348;27;19962;-83
2024/01/26 02:07:41;;;;;;;;;;;;;;;;;;5096059;27;19950;-84
2024/01/26 02:10:09;;;;;;;;;;;;;;;;;;5115079;27;19912;-82
2024/01/26 02:12:38;;;;;;;;;;;;;;;;;;5114328;27;19915;-83
2024/01/26 02:15:07;;;;;;;;;;;;;;;;;;5103188;27;19997;-84
2024/01/26 02:17:34;;;;;;;;;;;;;;;;;;5101459;27;19922;-84
2024/01/26 02:20:03;;;;;;;;;;;;;;;;;;5106179;27;20482;-83
2024/01/26 02:22:31;;;;;;;;;;;;;;;;;;5101172;27;20669;-85
2024/01/26 02:24:58;;;;;;;;;;;;;;;;;;5123955;27;19971;-84
2024/01/26 02:27:25;;;;;;;;;;;;;;;;;;5104971;27;19911;-82
2024/01/26 02:29:52;;;;;;;;;;;;;;;;;;5110098;27;19912;-83
2024/01/26 02:32:20;;;;;;;;;;;;;;;;;;5125709;27;19915;-83
2024/01/26 02:34:47;;;;;;;;;;;;;;;;;;5121783;27;19908;-83
2024/01/26 02:37:13;;;;;;;;;;;;;;;;;;5111531;27;19972;-83
2024/01/26 02:39:41;;;;;;;;;;;;;;;;;;5127262;27;19933;-83
2024/01/26 02:42:09;;;;;;;;;;;;;;;;;;5133552;27;19915;-83
2024/01/26 02:44:36;;;;;;;;;;;;;;;;;;5124208;27;19911;-83
2024/01/26 02:47:06;;;;;;;;;;;;;;;;;;5114633;27;19927;-84
2024/01/26 02:49:33;;;;;;;;;;;;;;;;;;5100914;27;19919;-84
2024/01/26 02:51:59;;;;;;;;;;;;;;;;;;5102948;27;19915;-83
2024/01/26 02:54:28;;;;;;;;;;;;;;;;;;5115277;27;19912;-84
2024/01/26 02:56:56;;;;;;;;;;;;;;;;;;5117972;27;19911;-82
2024/01/26 02:59:27;;;;;;;;;;;;;;;;;;5111674;27;19918;-83
2024/01/26 03:01:54;;;;;;;;;;;;;;;;;;5098555;27;19918;-84
2024/01/26 03:04:22;;;;;;;;;;;;;;;;;;5110821;27;19943;-84
2024/01/26 03:06:49;;;;;;;;;;;;;;;;;;5096664;27;19947;-84
2024/01/26 03:09:15;;;;;;;;;;;;;;;;;;5113268;27;20012;-83
2024/01/26 03:11:41;;;;;;;;;;;;;;;;;;5092359;27;20037;-84
2024/01/26 03:14:08;;;;;;;;;;;;;;;;;;5108943;27;19993;-84
2024/01/26 03:16:35;;;;;;;;;;;;;;;;;;5105827;27;19908;-84
2024/01/26 03:19:02;;;;;;;;;;;;;;;;;;5095918;27;19919;-83
2024/01/26 03:21:30;;;;;;;;;;;;;;;;;;5093974;27;19911;-83
2024/01/26 03:23:57;;;;;;;;;;;;;;;;;;5106277;27;19921;-83
2024/01/26 03:26:23;;;;;;;;;;;;;;;;;;5094217;27;20558;-83
2024/01/26 03:28:49;;;;;;;;;;;;;;;;;;5110336;27;19907;-83
2024/01/26 03:31:17;;;;;;;;;;;;;;;;;;5110817;27;19922;-84
2024/01/26 03:33:45;;;;;;;;;;;;;;;;;;5093146;27;19919;-83
2024/01/26 03:36:13;;;;;;;;;;;;;;;;;;5109138;27;20188;-83
2024/01/26 03:38:40;;;;;;;;;;;;;;;;;;5107053;27;19924;-83
2024/01/26 03:41:07;;;;;;;;;;;;;;;;;;5090794;27;19911;-84
2024/01/26 03:43:35;;;;;;;;;;;;;;;;;;5108358;27;19911;-83
2024/01/26 03:46:02;;;;;;;;;;;;;;;;;;5107415;27;19988;-84
2024/01/26 03:48:30;;;;;;;;;;;;;;;;;;5105678;27;19912;-83
2024/01/26 03:50:57;;;;;;;;;;;;;;;;;;5092857;27;19930;-83
2024/01/26 03:53:23;;;;;;;;;;;;;;;;;;5109056;27;20003;-83
2024/01/26 03:55:51;;;;;;;;;;;;;;;;;;5108278;27;19911;-83
2024/01/26 03:58:18;;;;;;;;;;;;;;;;;;5092481;27;20596;-83
2024/01/26 04:00:46;;;;;;;;;;;;;;;;;;5110586;27;19911;-84
2024/01/26 04:03:12;;;;;;;;;;;;;;;;;;5107997;27;19915;-83
2024/01/26 04:05:39;;;;;;;;;;;;;;;;;;5106888;27;19911;-84
2024/01/26 04:08:06;;;;;;;;;;;;;;;;;;5095296;27;19961;-83
2024/01/26 04:10:33;;;;;;;;;;;;;;;;;;5092865;27;20452;-83
2024/01/26 04:13:01;;;;;;;;;;;;;;;;;;5096356;27;19915;-83
2024/01/26 04:15:29;;;;;;;;;;;;;;;;;;5111917;27;19911;-83
2024/01/26 04:17:57;;;;;;;;;;;;;;;;;;5116027;27;19946;-83
2024/01/26 04:20:27;;;;;;;;;;;;;;;;;;5112936;27;19912;-83
2024/01/26 04:22:55;;;;;;;;;;;;;;;;;;5097817;27;19911;-81
2024/01/26 04:25:22;;;;;;;;;;;;;;;;;;5114746;27;19984;-83
2024/01/26 04:27:52;;;;;;;;;;;;;;;;;;5111616;27;19912;-83
2024/01/26 04:30:20;;;;;;;;;;;;;;;;;;5112342;27;21114;-83
2024/01/26 04:32:47;;;;;;;;;;;;;;;;;;5112587;27;19998;-84
2024/01/26 04:35:15;;;;;;;;;;;;;;;;;;5100571;27;19911;-83
2024/01/26 04:37:42;;;;;;;;;;;;;;;;;;5095542;27;19911;-82
2024/01/26 04:40:08;;;;;;;;;;;;;;;;;;5113471;27;19911;-85
2024/01/26 04:42:33;;;;;;;;;;;;;;;;;;5095735;27;19911;-83
2024/01/26 04:45:01;;;;;;;;;;;;;;;;;;5115412;27;20026;-82
2024/01/26 04:47:28;;;;;;;;;;;;;;;;;;5092916;27;19946;-82
2024/01/26 04:49:56;;;;;;;;;;;;;;;;;;5115157;27;19919;-82
2024/01/26 04:52:23;;;;;;;;;;;;;;;;;;5096534;27;19919;-82
2024/01/26 04:54:51;;;;;;;;;;;;;;;;;;5112000;27;20519;-84
2024/01/26 04:57:18;;;;;;;;;;;;;;;;;;5113870;27;20617;-83
2024/01/26 04:59:45;;;;;;;;;;;;;;;;;;5108171;27;20068;-83
2024/01/26 05:02:12;;;;;;;;;;;;;;;;;;5112735;27;20013;-83
2024/01/26 05:04:40;;;;;;;;;;;;;;;;;;5108421;27;19915;-83
2024/01/26 05:07:07;;;;;;;;;;;;;;;;;;5112264;27;19912;-83
2024/01/26 05:09:35;;;;;;;;;;;;;;;;;;5111239;27;19911;-83
2024/01/26 05:12:12;;;;;;;;;;;;;;;;;;5111706;27;19922;-83
2024/01/26 05:14:41;;;;;;;;;;;;;;;;;;5105399;27;19922;-83
2024/01/26 05:17:09;;;;;;;;;;;;;;;;;;5097655;27;19911;-83
2024/01/26 05:19:37;;;;;;;;;;;;;;;;;;5109042;27;19918;-83
2024/01/26 05:22:04;;;;;;;;;;;;;;;;;;5117503;27;19975;-83
2024/01/26 05:24:31;;;;;;;;;;;;;;;;;;5106577;27;19916;-83
2024/01/26 05:26:58;;;;;;;;;;;;;;;;;;5109681;27;19911;-83
2024/01/26 05:29:26;;;;;;;;;;;;;;;;;;5103114;27;19912;-84
2024/01/26 05:31:53;;;;;;;;;;;;;;;;;;5113063;27;19980;-83
2024/01/26 05:34:20;;;;;;;;;;;;;;;;;;5101381;27;20029;-82
2024/01/26 05:36:47;;;;;;;;;;;;;;;;;;5109146;27;20439;-83
2024/01/26 05:39:14;;;;;;;;;;;;;;;;;;5098493;27;20030;-83
2024/01/26 05:41:42;;;;;;;;;;;;;;;;;;5094742;27;20370;-83
2024/01/26 05:44:08;;;;;;;;;;;;;;;;;;5097618;27;19908;-83
2024/01/26 05:46:36;;;;;;;;;;;;;;;;;;5087076;27;20713;-82
2024/01/26 05:49:03;;;;;;;;;;;;;;;;;;5097476;27;19915;-83
2024/01/26 05:51:30;;;;;;;;;;;;;;;;;;5093203;27;19920;-83
2024/01/26 05:53:57;;;;;;;;;;;;;;;;;;5097641;27;19912;-82
2024/01/26 05:56:24;;;;;;;;;;;;;;;;;;5096679;27;20003;-84
2024/01/26 05:58:52;;;;;;;;;;;;;;;;;;5089868;27;21125;-85
2024/01/26 06:01:18;;;;;;;;;;;;;;;;;;5095887;27;19951;-82
2024/01/26 06:03:45;;;;;;;;;;;;;;;;;;5089399;27;20020;-83
2024/01/26 06:06:13;;;;;;;;;;;;;;;;;;5098764;27;19933;-83
2024/01/26 06:08:41;;;;;;;;;;;;;;;;;;5098705;27;20569;-83
2024/01/26 06:11:09;;;;;;;;;;;;;;;;;;5098043;27;20609;-83
2024/01/26 06:13:55;;;;;;;;;;;;;;;;;;5099144;27;19962;-84
2024/01/26 06:16:21;;;;;;;;;;;;;;;;;;5097462;27;19968;-83
2024/01/26 06:18:47;;;;;;;;;;;;;;;;;;5099866;27;19912;-83
2024/01/26 06:21:14;;;;;;;;;;;;;;;;;;5107823;27;19911;-83
2024/01/26 06:23:42;;;;;;;;;;;;;;;;;;5103663;27;20143;-86
2024/01/26 06:26:09;;;;;;;;;;;;;;;;;;5107027;27;19919;-84
2024/01/26 06:28:36;;;;;;;;;;;;;;;;;;5119070;27;19976;-86
2024/01/26 06:31:03;;;;;;;;;;;;;;;;;;5104602;27;19964;-85
2024/01/26 06:33:30;;;;;;;;;;;;;;;;;;5102133;27;19911;-85
2024/01/26 06:35:57;;;;;;;;;;;;;;;;;;5111061;27;19918;-82
2024/01/26 06:38:25;;;;;;;;;;;;;;;;;;5110907;27;19918;-82
2024/01/26 06:40:52;;;;;;;;;;;;;;;;;;5099893;27;20699;-84
2024/01/26 06:43:20;;;;;;;;;;;;;;;;;;5115725;27;19911;-83
2024/01/26 06:45:47;;;;;;;;;;;;;;;;;;5116547;27;19930;-85
2024/01/26 06:48:13;;;;;;;;;;;;;;;;;;5112183;27;19911;-83
2024/01/26 06:50:40;;;;;;;;;;;;;;;;;;5112401;27;19918;-83
2024/01/26 06:53:09;;;;;;;;;;;;;;;;;;5099182;28;19942;-85
2024/01/26 06:55:36;;;;;;;;;;;;;;;;;;5113332;27;19915;-84
2024/01/26 06:58:03;;;;;;;;;;;;;;;;;;5116908;27;19911;-84
2024/01/26 07:00:31;;;;;;;;;;;;;;;;;;5101027;27;19912;-85
2024/01/26 07:02:58;;;;;;;;;;;;;;;;;;5104898;27;19921;-83
2024/01/26 07:05:24;;;;;;;;;;;;;;;;;;5124263;27;19964;-83
2024/01/26 07:07:54;;;;;;;;;;;;;;;;;;5123043;27;19950;-83
2024/01/26 07:10:21;;;;;;;;;;;;;;;;;;5113666;27;20044;-83
2024/01/26 07:12:48;;;;;;;;;;;;;;;;;;5112838;27;19950;-82
2024/01/26 07:15:14;;;;;;;;;;;;;;;;;;5097840;27;19919;-83
2024/01/26 07:17:40;;;;;;;;;;;;;;;;;;5098886;27;19911;-83
2024/01/26 07:20:08;;;;;;;;;;;;;;;;;;5099966;27;19912;-82
2024/01/26 07:22:35;;;;;;;;;;;;;;;;;;5096846;27;19957;-76
2024/01/26 07:25:09;;;;;;;;;;;;;;;;;;5089505;27;20106;-76
2024/01/26 07:27:37;;;;;;;;;;;;;;;;;;5092077;27;19912;-82
2024/01/26 07:30:05;;;;;;;;;;;;;;;;;;5092466;27;19919;-82
2024/01/26 07:32:36;;;;;;;;;;;;;;;;;;5086146;27;20551;-82
2024/01/26 07:35:03;;;;;;;;;;;;;;;;;;5092245;27;19919;-83
2024/01/26 07:37:30;;;;;;;;;;;;;;;;;;5091226;27;19977;-82
2024/01/26 07:39:57;;;;;;;;;;;;;;;;;;5091347;27;19911;-82
2024/01/26 07:42:24;;;;;;;;;;;;;;;;;;5087683;27;19999;-81
2024/01/26 07:44:52;;;;;;;;;;;;;;;;;;5088774;27;20054;-80
2024/01/26 07:47:20;;;;;;;;;;;;;;;;;;5092980;27;19976;-81
2024/01/26 07:49:50;;;;;;;;;;;;;;;;;;5090306;27;19912;-81
2024/01/26 07:52:27;;;;;;;;;;;;;;;;;;5087294;27;20594;-82
2024/01/26 07:54:57;;;;;;;;;;;;;;;;;;5093483;27;19977;-81
2024/01/26 07:57:25;;;;;;;;;;;;;;;;;;5091228;27;20002;-80
2024/01/26 08:00:01;;;;;;;;;;;;;;;;;;5092712;27;19911;-81
2024/01/26 08:02:29;;;;;;;;;;;;;;;;;;5089741;27;19911;-81
2024/01/26 08:04:55;;;;;;;;;;;;;;;;;;5087396;27;19912;-77
2024/01/26 08:07:22;;;;;;;;;;;;;;;;;;5086769;27;19911;-77
2024/01/26 08:09:49;;;;;;;;;;;;;;;;;;5085872;27;20374;-77
2024/01/26 08:12:16;;;;;;;;;;;;;;;;;;5089166;27;19942;-79
2024/01/26 08:14:43;;;;;;;;;;;;;;;;;;5082910;27;19916;-76
2024/01/26 08:17:10;;;;;;;;;;;;;;;;;;5086290;27;19912;-76
2024/01/26 08:19:37;;;;;;;;;;;;;;;;;;5085764;27;19911;-76
2024/01/26 08:22:04;;;;;;;;;;;;;;;;;;5087214;27;19918;-76
2024/01/26 08:24:30;;;;;;;;;;;;;;;;;;5010754;27;2336888;-76
2024/01/26 08:26:58;;;;;;;;;;;;;;;;;;5101165;27;20561;-77
2024/01/26 08:29:26;;;;;;;;;;;;;;;;;;5090304;27;19915;-75
2024/01/26 08:31:54;;;;;;;;;;;;;;;;;;5098406;27;19937;-77
2024/01/26 08:34:21;;;;;;;;;;;;;;;;;;5090573;27;20037;-76
2024/01/26 08:36:47;;;;;;;;;;;;;;;;;;5086208;27;20020;-76
2024/01/26 08:39:14;;;;;;;;;;;;;;;;;;5089111;27;19912;-77
2024/01/26 08:41:43;;;;;;;;;;;;;;;;;;5103095;27;20576;-75
2024/01/26 08:44:11;;;;;;;;;;;;;;;;;;5100555;27;20951;-76
2024/01/26 08:46:38;;;;;;;;;;;;;;;;;;5083114;27;19911;-75
2024/01/26 08:49:08;;;;;;;;;;;;;;;;;;5104882;27;20308;-76
2024/01/26 08:51:35;;;;;;;;;;;;;;;;;;5083427;27;20117;-76
2024/01/26 08:54:01;;;;;;;;;;;;;;;;;;5092161;27;20330;-76
2024/01/26 08:56:29;;;;;;;;;;;;;;;;;;5085540;27;19935;-77
2024/01/26 08:58:56;;;;;;;;;;;;;;;;;;5090910;27;19919;-78
2024/01/26 09:01:24;;;;;;;;;;;;;;;;;;5091592;27;19911;-78
2024/01/26 09:03:53;;;;;;;;;;;;;;;;;;5099021;27;20353;-78
2024/01/26 09:06:23;;;;;;;;;;;;;;;;;;5105903;27;19908;-78
2024/01/26 09:08:50;;;;;;;;;;;;;;;;;;5108537;27;19911;-76
2024/01/26 09:11:20;;;;;;;;;;;;;;;;;;5107481;27;19962;-77
2024/01/26 09:13:48;;;;;;;;;;;;;;;;;;5104859;27;19915;-78
2024/01/26 09:16:15;;;;;;;;;;;;;;;;;;5093149;27;19918;-78
2024/01/26 09:18:41;;;;;;;;;;;;;;;;;;5101276;27;19915;-77
2024/01/26 09:21:10;;;;;;;;;;;;;;;;;;5083453;27;19914;-78
2024/01/26 09:23:38;;;;;;;;;;;;;;;;;;5104274;27;20020;-77
2024/01/26 09:26:04;;;;;;;;;;;;;;;;;;5105825;27;20104;-77
2024/01/26 09:28:31;;;;;;;;;;;;;;;;;;5102954;27;19911;-78
2024/01/26 09:31:01;;;;;;;;;;;;;;;;;;5106427;27;19915;-77
2024/01/26 09:33:27;;;;;;;;;;;;;;;;;;5091935;27;19911;-77
2024/01/26 09:35:56;;;;;;;;;;;;;;;;;;5112433;27;19960;-77
2024/01/26 09:38:24;;;;;;;;;;;;;;;;;;5104751;27;19912;-77
2024/01/26 09:40:51;;;;;;;;;;;;;;;;;;5093265;27;19908;-77
2024/01/26 09:43:18;;;;;;;;;;;;;;;;;;5104862;27;20018;-77
2024/01/26 09:45:46;;;;;;;;;;;;;;;;;;5087655;27;19923;-77
2024/01/26 09:48:13;;;;;;;;;;;;;;;;;;5089423;27;19907;-77
2024/01/26 09:50:40;;;;;;;;;;;;;;;;;;5101199;27;20634;-77
2024/01/26 09:53:07;;;;;;;;;;;;;;;;;;5087711;27;19972;-77
2024/01/26 09:55:34;;;;;;;;;;;;;;;;;;5103226;27;19915;-77
2024/01/26 09:58:02;;;;;;;;;;;;;;;;;;5108292;27;19942;-77
2024/01/26 10:00:29;;;;;;;;;;;;;;;;;;5090742;27;20015;-76
2024/01/26 10:02:55;;;;;;;;;;;;;;;;;;5091232;27;19923;-77
2024/01/26 10:05:22;;;;;;;;;;;;;;;;;;5092028;27;19911;-78
2024/01/26 10:07:49;;;;;;;;;;;;;;;;;;5087788;28;19912;-77
2024/01/26 10:10:16;;;;;;;;;;;;;;;;;;5091176;27;20444;-77
2024/01/26 10:12:43;;;;;;;;;;;;;;;;;;5104011;27;19919;-78
2024/01/26 10:15:10;;;;;;;;;;;;;;;;;;5106424;27;19950;-76
2024/01/26 10:17:37;;;;;;;;;;;;;;;;;;5105415;27;19930;-76
2024/01/26 10:20:04;;;;;;;;;;;;;;;;;;5103922;27;19912;-76
2024/01/26 10:22:31;;;;;;;;;;;;;;;;;;5088897;27;19915;-76
2024/01/26 10:25:02;;;;;;;;;;;;;;;;;;5082468;27;20348;-77
2024/01/26 10:27:30;;;;;;;;;;;;;;;;;;5085842;27;20023;-87
2024/01/26 10:29:56;;;;;;;;;;;;;;;;;;5090292;27;19907;-87
2024/01/26 10:32:22;;;;;;;;;;;;;;;;;;5090624;27;19972;-88
2024/01/26 10:34:49;;;;;;;;;;;;;;;;;;5090698;27;19915;-86
2024/01/26 10:37:16;;;;;;;;;;;;;;;;;;5090892;27;20035;-84
2024/01/26 10:39:43;;;;;;;;;;;;;;;;;;5086223;27;20381;-83
2024/01/26 10:42:10;;;;;;;;;;;;;;;;;;5085834;27;19918;-77
2024/01/26 10:44:38;;;;;;;;;;;;;;;;;;5086246;27;19915;-82
2024/01/26 10:47:05;;;;;;;;;;;;;;;;;;5084745;27;19949;-78
2024/01/26 10:49:33;;;;;;;;;;;;;;;;;;5088135;27;20289;-86
2024/01/26 10:52:00;;;;;;;;;;;;;;;;;;5091868;27;20007;-87
2024/01/26 10:54:27;;;;;;;;;;;;;;;;;;5092918;27;19946;-86
2024/01/26 10:56:54;;;;;;;;;;;;;;;;;;5097920;27;19982;-86
2024/01/26 10:59:21;;;;;;;;;;;;;;;;;;5103278;27;20031;-85
2024/01/26 11:01:49;;;;;;;;;;;;;;;;;;5096030;27;20026;-86
2024/01/26 11:04:30;;;;;;;;;;;;;;;;;;5095630;27;19941;-86
2024/01/26 11:06:56;;;;;;;;;;;;;;;;;;5095323;27;19919;-86
2024/01/26 11:09:23;;;;;;;;;;;;;;;;;;5092681;27;20024;-86
2024/01/26 11:11:51;;;;;;;;;;;;;;;;;;5092666;27;20531;-87
2024/01/26 11:14:19;;;;;;;;;;;;;;;;;;5096826;27;19918;-86
2024/01/26 11:16:47;;;;;;;;;;;;;;;;;;5093373;27;19923;-86
2024/01/26 11:19:14;;;;;;;;;;;;;;;;;;5094161;27;20048;-85
2024/01/26 11:21:41;;;;;;;;;;;;;;;;;;5092170;27;19912;-84
2024/01/26 11:24:11;;;;;;;;;;;;;;;;;;5099695;27;20394;-86
2024/01/26 11:26:38;;;;;;;;;;;;;;;;;;5105686;27;19919;-85
2024/01/26 11:29:05;;;;;;;;;;;;;;;;;;5103931;27;19919;-84
2024/01/26 11:31:32;;;;;;;;;;;;;;;;;;5108399;27;19919;-84
2024/01/26 11:34:00;;;;;;;;;;;;;;;;;;5114187;27;19990;-86
2024/01/26 11:36:27;;;;;;;;;;;;;;;;;;5096356;27;19946;-86
2024/01/26 11:38:54;;;;;;;;;;;;;;;;;;5096917;27;20047;-85
2024/01/26 11:41:21;;;;;;;;;;;;;;;;;;5107281;27;20467;-86
2024/01/26 11:43:48;;;;;;;;;;;;;;;;;;5108551;27;19964;-85
2024/01/26 11:46:15;;;;;;;;;;;;;;;;;;5094899;27;19911;-85
2024/01/26 11:48:42;;;;;;;;;;;;;;;;;;5096782;27;19912;-85
2024/01/26 11:51:10;;;;;;;;;;;;;;;;;;5108214;27;19921;-85
2024/01/26 11:53:37;;;;;;;;;;;;;;;;;;5093670;27;19911;-85
2024/01/26 11:56:05;;;;;;;;;;;;;;;;;;5097716;27;19911;-85
2024/01/26 11:58:32;;;;;;;;;;;;;;;;;;5109779;27;19936;-86
2024/01/26 12:01:01;;;;;;;;;;;;;;;;;;5098412;27;20018;-84
2024/01/26 12:03:28;;;;;;;;;;;;;;;;;;5106062;27;19926;-85
2024/01/26 12:05:56;;;;;;;;;;;;;;;;;;5113764;27;19935;-86
2024/01/26 12:08:24;;;;;;;;;;;;;;;;;;5112112;27;20647;-85
2024/01/26 12:11:01;;;;;;;;;;;;;;;;;;5110810;27;20774;-75
2024/01/26 12:13:28;;;;;;;;;;;;;;;;;;5090971;27;19911;-75
2024/01/26 12:15:57;;;;;;;;;;;;;;;;;;5102760;27;20671;-75
2024/01/26 12:18:25;;;;;;;;;;;;;;;;;;5105977;27;19992;-75
2024/01/26 12:20:51;;;;;;;;;;;;;;;;;;5090977;27;19915;-76
2024/01/26 12:23:18;;;;;;;;;;;;;;;;;;5078638;27;19920;-75
2024/01/26 12:25:45;;;;;;;;;;;;;;;;;;5067918;28;19920;-75
2024/01/26 12:28:11;;;;;;;;;;;;;;;;;;5068694;28;20039;-75
2024/01/26 12:30:38;;;;;;;;;;;;;;;;;;5066310;28;19912;-75
2024/01/26 12:33:06;;;;;;;;;;;;;;;;;;5068368;28;20026;-76
2024/01/26 12:35:34;;;;;;;;;;;;;;;;;;5072192;28;19912;-82
2024/01/26 12:38:01;;;;;;;;;;;;;;;;;;5059635;28;19934;-82
2024/01/26 12:40:29;;;;;;;;;;;;;;;;;;5072716;28;19912;-83
2024/01/26 12:42:56;;;;;;;;;;;;;;;;;;5057884;28;19935;-82
2024/01/26 12:45:23;;;;;;;;;;;;;;;;;;5074008;28;19990;-82
2024/01/26 12:47:50;;;;;;;;;;;;;;;;;;5071092;28;19951;-82
2024/01/26 12:50:17;;;;;;;;;;;;;;;;;;5054507;28;19943;-81
2024/01/26 12:52:44;;;;;;;;;;;;;;;;;;5072335;28;20014;-82
2024/01/26 12:55:12;;;;;;;;;;;;;;;;;;5069474;28;19916;-82
2024/01/26 12:57:39;;;;;;;;;;;;;;;;;;5066616;28;20448;-82
2024/01/26 13:00:06;;;;;;;;;;;;;;;;;;5064204;28;19997;-82
2024/01/26 13:02:33;;;;;;;;;;;;;;;;;;5068781;28;19919;-83
2024/01/26 13:05:00;;;;;;;;;;;;;;;;;;5071794;28;20673;-83
2024/01/26 13:07:31;;;;;;;;;;;;;;;;;;5064633;28;19962;-82
2024/01/26 13:10:08;;;;;;;;;;;;;;;;;;5070947;28;19957;-82
2024/01/26 13:12:35;;;;;;;;;;;;;;;;;;5070108;28;19916;-83
2024/01/26 13:15:03;;;;;;;;;;;;;;;;;;5075072;28;19912;-83
2024/01/26 13:17:32;;;;;;;;;;;;;;;;;;5067501;28;19994;-83
2024/01/26 13:19:58;;;;;;;;;;;;;;;;;;5074043;28;20003;-82
2024/01/26 13:22:25;;;;;;;;;;;;;;;;;;5049556;28;19912;-84
2024/01/26 13:24:52;;;;;;;;;;;;;;;;;;5071220;28;19927;-83
2024/01/26 13:27:19;;;;;;;;;;;;;;;;;;5070700;28;19919;-81
2024/01/26 13:29:47;;;;;;;;;;;;;;;;;;5067936;28;19989;-83
2024/01/26 13:32:14;;;;;;;;;;;;;;;;;;5069793;28;19915;-83
2024/01/26 13:34:42;;;;;;;;;;;;;;;;;;5066019;28;19938;-83
2024/01/26 13:37:09;;;;;;;;;;;;;;;;;;5068960;28;20479;-83
2024/01/26 13:39:36;;;;;;;;;;;;;;;;;;5065056;28;19920;-84
2024/01/26 13:42:07;;;;;;;;;;;;;;;;;;5072261;28;19912;-83
2024/01/26 13:44:34;;;;;;;;;;;;;;;;;;5065205;28;19920;-83
2024/01/26 13:47:01;;;;;;;;;;;;;;;;;;5050594;28;19959;-84
2024/01/26 13:49:28;;;;;;;;;;;;;;;;;;5063031;28;19965;-83
2024/01/26 13:51:56;;;;;;;;;;;;;;;;;;5068051;28;19939;-82
2024/01/26 13:54:23;;;;;;;;;;;;;;;;;;5066246;28;19912;-83
2024/01/26 13:56:54;;;;;;;;;;;;;;;;;;5050772;28;19916;-82
2024/01/26 13:59:21;;;;;;;;;;;;;;;;;;5068937;28;20701;-83
2024/01/26 14:01:49;;;;;;;;;;;;;;;;;;5068244;28;19912;-83
2024/01/26 14:04:15;;;;;;;;;;;;;;;;;;5052791;28;19922;-83
2024/01/26 14:06:44;;;;;;;;;;;;;;;;;;5064819;28;19934;-83
2024/01/26 14:09:12;;;;;;;;;;;;;;;;;;5047604;28;19912;-84
2024/01/26 14:11:40;;;;;;;;;;;;;;;;;;5064478;28;19919;-82
2024/01/26 14:14:07;;;;;;;;;;;;;;;;;;5056581;28;19912;-83
2024/01/26 14:16:34;;;;;;;;;;;;;;;;;;5048815;28;19920;-82
2024/01/26 14:19:01;;;;;;;;;;;;;;;;;;5067842;28;19939;-82
2024/01/26 14:21:28;;;;;;;;;;;;;;;;;;5072232;28;19937;-82
2024/01/26 14:23:56;;;;;;;;;;;;;;;;;;5068499;28;19920;-83
2024/01/26 14:26:26;;;;;;;;;;;;;;;;;;5056133;28;20537;-83
2024/01/26 14:28:54;;;;;;;;;;;;;;;;;;5067884;28;19913;-80
2024/01/26 14:31:21;;;;;;;;;;;;;;;;;;5056000;28;19970;-81
2024/01/26 14:33:49;;;;;;;;;;;;;;;;;;5052851;28;19911;-81
2024/01/26 14:36:16;;;;;;;;;;;;;;;;;;5070955;28;19914;-82
2024/01/26 14:38:42;;;;;;;;;;;;;;;;;;5067296;28;19915;-82
2024/01/26 14:41:09;;;;;;;;;;;;;;;;;;5071308;28;19918;-82
2024/01/26 14:43:35;;;;;;;;;;;;;;;;;;5052627;28;19915;-81
2024/01/26 14:46:04;;;;;;;;;;;;;;;;;;5071113;28;19912;-81
2024/01/26 14:48:31;;;;;;;;;;;;;;;;;;5068367;28;20018;-83
2024/01/26 14:51:03;;;;;;;;;;;;;;;;;;5056746;28;19916;-83
2024/01/26 14:53:29;;;;;;;;;;;;;;;;;;5053140;28;20479;-82
2024/01/26 14:55:57;;;;;;;;;;;;;;;;;;5074047;28;19912;-80
2024/01/26 14:58:24;;;;;;;;;;;;;;;;;;5054271;28;19912;-82
2024/01/26 15:00:50;;;;;;;;;;;;;;;;;;5071486;28;20449;-82
2024/01/26 15:03:15;;;;;;;;;;;;;;;;;;5063550;28;19912;-82
2024/01/26 15:05:44;;;;;;;;;;;;;;;;;;5072476;28;20454;-81
2024/01/26 15:08:11;;;;;;;;;;;;;;;;;;5075100;28;19955;-81
2024/01/26 15:10:40;;;;;;;;;;;;;;;;;;5055714;28;19919;-81
2024/01/26 15:13:07;;;;;;;;;;;;;;;;;;5071156;28;19916;-82
2024/01/26 15:15:34;;;;;;;;;;;;;;;;;;5070067;28;19954;-83
2024/01/26 15:18:02;;;;;;;;;;;;;;;;;;5070494;28;19919;-82
2024/01/26 15:20:29;;;;;;;;;;;;;;;;;;5061207;28;19911;-82
2024/01/26 15:22:56;;;;;;;;;;;;;;;;;;5051995;28;20383;-83
2024/01/26 15:25:23;;;;;;;;;;;;;;;;;;5054397;28;19923;-82
2024/01/26 15:27:50;;;;;;;;;;;;;;;;;;5065621;28;19916;-82
2024/01/26 15:30:16;;;;;;;;;;;;;;;;;;5053419;28;20045;-82
2024/01/26 15:32:43;;;;;;;;;;;;;;;;;;5052846;28;20026;-81
2024/01/26 15:35:10;;;;;;;;;;;;;;;;;;5054442;28;19916;-80
2024/01/26 15:37:36;;;;;;;;;;;;;;;;;;5054402;28;19920;-80
2024/01/26 15:40:03;;;;;;;;;;;;;;;;;;5054729;28;19912;-81
2024/01/26 15:42:30;;;;;;;;;;;;;;;;;;5051402;28;20438;-81
2024/01/26 15:44:59;;;;;;;;;;;;;;;;;;5055370;28;19912;-81
2024/01/26 15:47:30;;;;;;;;;;;;;;;;;;5053546;28;19948;-82
2024/01/26 15:50:17;;;;;;;;;;;;;;;;;;5053963;28;19913;-81
2024/01/26 15:52:45;;;;;;;;;;;;;;;;;;5052927;28;20100;-83
2024/01/26 15:55:15;;;;;;;;;;;;;;;;;;5054064;28;19919;-82
2024/01/26 15:57:42;;;;;;;;;;;;;;;;;;5049546;28;19912;-82
2024/01/26 16:00:09;;;;;;;;;;;;;;;;;;5048650;28;20027;-82
2024/01/26 16:02:37;;;;;;;;;;;;;;;;;;5054791;28;19981;-82
2024/01/26 16:05:05;;;;;;;;;;;;;;;;;;5051519;28;19958;-80
2024/01/26 16:07:31;;;;;;;;;;;;;;;;;;5046795;28;19923;-81
2024/01/26 16:09:59;;;;;;;;;;;;;;;;;;5051929;28;20007;-81
2024/01/26 16:12:26;;;;;;;;;;;;;;;;;;5052927;28;19923;-81
2024/01/26 16:14:53;;;;;;;;;;;;;;;;;;5051793;28;20467;-83
2024/01/26 16:17:21;;;;;;;;;;;;;;;;;;5052998;28;20678;-81
2024/01/26 16:19:47;;;;;;;;;;;;;;;;;;5048998;28;19974;-82
2024/01/26 16:22:14;;;;;;;;;;;;;;;;;;5051424;28;19914;-83
2024/01/26 16:24:41;;;;;;;;;;;;;;;;;;5063851;28;19924;-81
2024/01/26 16:27:10;;;;;;;;;;;;;;;;;;5057115;28;19913;-80
2024/01/26 16:29:37;;;;;;;;;;;;;;;;;;5063376;28;19919;-81
2024/01/26 16:32:15;;;;;;;;;;;;;;;;;;5064603;28;20030;-83
2024/01/26 16:34:45;;;;;;;;;;;;;;;;;;5063520;28;20582;-82
2024/01/26 16:37:11;;;;;;;;;;;;;;;;;;5066298;28;20030;-81
2024/01/26 16:39:38;;;;;;;;;;;;;;;;;;5049196;28;19912;-81
2024/01/26 16:42:06;;;;;;;;;;;;;;;;;;5067237;28;19969;-81
2024/01/26 16:44:33;;;;;;;;;;;;;;;;;;5053839;28;19912;-81
2024/01/26 16:47:00;;;;;;;;;;;;;;;;;;5050098;28;19920;-82
2024/01/26 16:49:27;;;;;;;;;;;;;;;;;;5049421;28;19916;-82